sensor_id;sensor_type;location;lat;lon;timestamp;P1;durP1;ratioP1;P2;durP2;ratioP2
21032;SDS011;10675;47.976;7.824;2023-01-23T00:00:26;11.03;;;6.40;;
21032;SDS011;10675;47.976;7.824;2023-01-23T00:02:52;11.13;;;6.47;;
21032;SDS011;10675;47.976;7.824;2023-01-23T00:05:17;7.93;;;5.53;;
21032;SDS011;10675;47.976;7.824;2023-01-23T00:07:43;12.50;;;6.23;;
21032;SDS011;10675;47.976;7.824;2023-01-23T00:10:09;11.93;;;6.20;;
21032;SDS011;10675;47.976;7.824;2023-01-23T00:12:35;11.30;;;5.97;;
21032;SDS011;10675;47.976;7.824;2023-01-23T00:15:00;11.40;;;5.63;;
21032;SDS011;10675;47.976;7.824;2023-01-23T00:17:26;10.80;;;5.87;;
21032;SDS011;10675;47.976;7.824;2023-01-23T00:19:53;9.37;;;5.90;;
21032;SDS011;10675;47.976;7.824;2023-01-23T00:22:19;9.43;;;6.20;;
21032;SDS011;10675;47.976;7.824;2023-01-23T00:24:44;8.57;;;6.03;;
21032;SDS011;10675;47.976;7.824;2023-01-23T00:27:10;8.23;;;5.73;;
21032;SDS011;10675;47.976;7.824;2023-01-23T00:29:36;10.23;;;5.83;;
21032;SDS011;10675;47.976;7.824;2023-01-23T00:32:01;9.77;;;5.80;;
21032;SDS011;10675;47.976;7.824;2023-01-23T00:34:27;10.60;;;6.27;;
21032;SDS011;10675;47.976;7.824;2023-01-23T00:36:52;8.97;;;5.93;;
21032;SDS011;10675;47.976;7.824;2023-01-23T00:39:19;9.40;;;6.47;;
21032;SDS011;10675;47.976;7.824;2023-01-23T00:41:46;12.10;;;6.17;;
21032;SDS011;10675;47.976;7.824;2023-01-23T00:44:12;11.63;;;6.63;;
21032;SDS011;10675;47.976;7.824;2023-01-23T00:46:39;12.23;;;6.37;;
21032;SDS011;10675;47.976;7.824;2023-01-23T00:49:05;8.87;;;5.60;;
21032;SDS011;10675;47.976;7.824;2023-01-23T00:51:31;9.03;;;6.43;;
21032;SDS011;10675;47.976;7.824;2023-01-23T00:53:57;10.17;;;6.67;;
21032;SDS011;10675;47.976;7.824;2023-01-23T00:56:23;11.03;;;6.40;;
21032;SDS011;10675;47.976;7.824;2023-01-23T00:58:48;12.50;;;6.57;;
21032;SDS011;10675;47.976;7.824;2023-01-23T01:01:14;11.37;;;5.97;;
21032;SDS011;10675;47.976;7.824;2023-01-23T01:03:40;11.10;;;6.43;;
21032;SDS011;10675;47.976;7.824;2023-01-23T01:06:07;9.73;;;5.70;;
21032;SDS011;10675;47.976;7.824;2023-01-23T01:08:33;10.57;;;6.20;;
21032;SDS011;10675;47.976;7.824;2023-01-23T01:10:59;10.30;;;5.63;;
21032;SDS011;10675;47.976;7.824;2023-01-23T01:13:24;8.57;;;5.90;;
21032;SDS011;10675;47.976;7.824;2023-01-23T01:15:51;9.40;;;5.80;;
21032;SDS011;10675;47.976;7.824;2023-01-23T01:18:17;8.27;;;6.10;;
21032;SDS011;10675;47.976;7.824;2023-01-23T01:20:44;9.80;;;5.70;;
21032;SDS011;10675;47.976;7.824;2023-01-23T01:23:09;7.97;;;5.50;;
21032;SDS011;10675;47.976;7.824;2023-01-23T01:25:35;7.93;;;5.60;;
21032;SDS011;10675;47.976;7.824;2023-01-23T01:28:01;9.77;;;5.67;;
21032;SDS011;10675;47.976;7.824;2023-01-23T01:30:27;9.63;;;5.93;;
21032;SDS011;10675;47.976;7.824;2023-01-23T01:32:54;10.87;;;6.17;;
21032;SDS011;10675;47.976;7.824;2023-01-23T01:35:20;9.63;;;5.60;;
21032;SDS011;10675;47.976;7.824;2023-01-23T01:37:47;11.57;;;6.20;;
21032;SDS011;10675;47.976;7.824;2023-01-23T01:40:17;7.40;;;6.03;;
21032;SDS011;10675;47.976;7.824;2023-01-23T01:42:54;9.77;;;5.27;;
21032;SDS011;10675;47.976;7.824;2023-01-23T01:48:38;7.60;;;5.40;;
21032;SDS011;10675;47.976;7.824;2023-01-23T01:51:51;8.50;;;5.67;;
21032;SDS011;10675;47.976;7.824;2023-01-23T01:57:49;10.83;;;6.00;;
21032;SDS011;10675;47.976;7.824;2023-01-23T01:59:47;6.80;;;4.50;;
21032;SDS011;10675;47.976;7.824;2023-01-23T02:02:18;8.20;;;5.70;;
21032;SDS011;10675;47.976;7.824;2023-01-23T02:04:51;8.53;;;4.77;;
21032;SDS011;10675;47.976;7.824;2023-01-23T02:10:06;7.97;;;5.00;;
21032;SDS011;10675;47.976;7.824;2023-01-23T02:12:33;8.20;;;5.27;;
21032;SDS011;10675;47.976;7.824;2023-01-23T02:15:00;7.73;;;5.27;;
21032;SDS011;10675;47.976;7.824;2023-01-23T02:17:26;7.50;;;4.73;;
21032;SDS011;10675;47.976;7.824;2023-01-23T02:19:57;8.53;;;5.30;;
21032;SDS011;10675;47.976;7.824;2023-01-23T02:22:46;9.63;;;5.60;;
21032;SDS011;10675;47.976;7.824;2023-01-23T02:25:19;11.43;;;5.60;;
21032;SDS011;10675;47.976;7.824;2023-01-23T02:27:51;10.50;;;5.33;;
21032;SDS011;10675;47.976;7.824;2023-01-23T02:30:17;8.17;;;5.07;;
21032;SDS011;10675;47.976;7.824;2023-01-23T02:32:43;8.83;;;4.87;;
21032;SDS011;10675;47.976;7.824;2023-01-23T02:35:10;7.60;;;4.97;;
21032;SDS011;10675;47.976;7.824;2023-01-23T02:37:43;5.97;;;4.50;;
21032;SDS011;10675;47.976;7.824;2023-01-23T02:40:11;9.77;;;5.80;;
21032;SDS011;10675;47.976;7.824;2023-01-23T02:42:38;8.57;;;5.33;;
21032;SDS011;10675;47.976;7.824;2023-01-23T02:45:07;8.13;;;4.57;;
21032;SDS011;10675;47.976;7.824;2023-01-23T02:47:32;7.33;;;5.13;;
21032;SDS011;10675;47.976;7.824;2023-01-23T02:49:58;7.93;;;4.47;;
21032;SDS011;10675;47.976;7.824;2023-01-23T02:52:24;8.23;;;4.77;;
21032;SDS011;10675;47.976;7.824;2023-01-23T02:54:49;8.63;;;5.30;;
21032;SDS011;10675;47.976;7.824;2023-01-23T02:57:15;8.40;;;5.50;;
21032;SDS011;10675;47.976;7.824;2023-01-23T02:59:40;8.53;;;4.53;;
21032;SDS011;10675;47.976;7.824;2023-01-23T03:02:24;7.03;;;4.80;;
21032;SDS011;10675;47.976;7.824;2023-01-23T03:04:50;7.20;;;4.83;;
21032;SDS011;10675;47.976;7.824;2023-01-23T03:07:16;8.87;;;4.90;;
21032;SDS011;10675;47.976;7.824;2023-01-23T03:09:42;9.00;;;4.80;;
21032;SDS011;10675;47.976;7.824;2023-01-23T03:12:10;6.93;;;4.20;;
21032;SDS011;10675;47.976;7.824;2023-01-23T03:14:35;8.27;;;4.40;;
21032;SDS011;10675;47.976;7.824;2023-01-23T03:17:01;6.20;;;4.27;;
21032;SDS011;10675;47.976;7.824;2023-01-23T03:19:27;5.57;;;3.63;;
21032;SDS011;10675;47.976;7.824;2023-01-23T03:21:52;5.47;;;3.73;;
21032;SDS011;10675;47.976;7.824;2023-01-23T03:24:18;7.40;;;4.30;;
21032;SDS011;10675;47.976;7.824;2023-01-23T03:26:45;4.57;;;3.43;;
21032;SDS011;10675;47.976;7.824;2023-01-23T03:29:15;6.97;;;3.77;;
21032;SDS011;10675;47.976;7.824;2023-01-23T03:32:01;6.40;;;3.97;;
21032;SDS011;10675;47.976;7.824;2023-01-23T03:34:27;5.80;;;4.07;;
21032;SDS011;10675;47.976;7.824;2023-01-23T03:36:54;8.13;;;4.00;;
21032;SDS011;10675;47.976;7.824;2023-01-23T03:39:20;6.63;;;3.97;;
21032;SDS011;10675;47.976;7.824;2023-01-23T03:42:04;6.77;;;3.73;;
21032;SDS011;10675;47.976;7.824;2023-01-23T03:44:30;6.37;;;3.97;;
21032;SDS011;10675;47.976;7.824;2023-01-23T03:46:55;6.23;;;4.30;;
21032;SDS011;10675;47.976;7.824;2023-01-23T03:49:21;6.47;;;4.47;;
21032;SDS011;10675;47.976;7.824;2023-01-23T03:51:46;6.07;;;3.70;;
21032;SDS011;10675;47.976;7.824;2023-01-23T03:54:12;7.80;;;4.47;;
21032;SDS011;10675;47.976;7.824;2023-01-23T03:56:38;7.67;;;4.90;;
21032;SDS011;10675;47.976;7.824;2023-01-23T03:59:05;5.63;;;4.30;;
21032;SDS011;10675;47.976;7.824;2023-01-23T04:01:30;5.33;;;4.03;;
21032;SDS011;10675;47.976;7.824;2023-01-23T04:03:56;6.07;;;4.07;;
21032;SDS011;10675;47.976;7.824;2023-01-23T04:06:21;5.17;;;3.93;;
21032;SDS011;10675;47.976;7.824;2023-01-23T04:08:47;6.77;;;3.97;;
21032;SDS011;10675;47.976;7.824;2023-01-23T04:11:13;6.23;;;3.80;;
21032;SDS011;10675;47.976;7.824;2023-01-23T04:13:38;8.97;;;4.67;;
21032;SDS011;10675;47.976;7.824;2023-01-23T04:16:05;6.97;;;4.17;;
21032;SDS011;10675;47.976;7.824;2023-01-23T04:18:31;6.57;;;4.50;;
21032;SDS011;10675;47.976;7.824;2023-01-23T04:20:57;6.10;;;4.13;;
21032;SDS011;10675;47.976;7.824;2023-01-23T04:23:23;5.70;;;3.63;;
21032;SDS011;10675;47.976;7.824;2023-01-23T04:25:50;6.50;;;4.07;;
21032;SDS011;10675;47.976;7.824;2023-01-23T04:28:16;7.77;;;4.20;;
21032;SDS011;10675;47.976;7.824;2023-01-23T04:30:42;7.37;;;4.47;;
21032;SDS011;10675;47.976;7.824;2023-01-23T04:33:08;6.43;;;4.13;;
21032;SDS011;10675;47.976;7.824;2023-01-23T04:35:33;7.63;;;4.40;;
21032;SDS011;10675;47.976;7.824;2023-01-23T04:37:59;9.27;;;4.53;;
21032;SDS011;10675;47.976;7.824;2023-01-23T04:40:25;5.50;;;3.93;;
21032;SDS011;10675;47.976;7.824;2023-01-23T04:42:50;6.63;;;4.07;;
21032;SDS011;10675;47.976;7.824;2023-01-23T04:45:16;5.33;;;3.53;;
21032;SDS011;10675;47.976;7.824;2023-01-23T04:47:41;7.97;;;4.73;;
21032;SDS011;10675;47.976;7.824;2023-01-23T04:50:07;5.33;;;3.47;;
21032;SDS011;10675;47.976;7.824;2023-01-23T04:52:33;8.00;;;4.67;;
21032;SDS011;10675;47.976;7.824;2023-01-23T04:54:59;6.73;;;4.30;;
21032;SDS011;10675;47.976;7.824;2023-01-23T04:57:24;5.40;;;3.60;;
21032;SDS011;10675;47.976;7.824;2023-01-23T04:59:50;9.10;;;4.07;;
21032;SDS011;10675;47.976;7.824;2023-01-23T05:02:16;7.40;;;4.10;;
21032;SDS011;10675;47.976;7.824;2023-01-23T05:04:41;6.47;;;3.90;;
21032;SDS011;10675;47.976;7.824;2023-01-23T05:07:07;5.20;;;3.40;;
21032;SDS011;10675;47.976;7.824;2023-01-23T05:09:36;7.80;;;4.97;;
21032;SDS011;10675;47.976;7.824;2023-01-23T05:12:02;8.07;;;4.53;;
21032;SDS011;10675;47.976;7.824;2023-01-23T05:14:28;9.63;;;5.67;;
21032;SDS011;10675;47.976;7.824;2023-01-23T05:16:54;8.67;;;5.30;;
21032;SDS011;10675;47.976;7.824;2023-01-23T05:19:19;7.27;;;4.37;;
21032;SDS011;10675;47.976;7.824;2023-01-23T05:21:45;6.07;;;4.13;;
21032;SDS011;10675;47.976;7.824;2023-01-23T05:24:10;5.23;;;3.97;;
21032;SDS011;10675;47.976;7.824;2023-01-23T05:26:36;6.57;;;3.63;;
21032;SDS011;10675;47.976;7.824;2023-01-23T05:29:01;6.60;;;3.80;;
21032;SDS011;10675;47.976;7.824;2023-01-23T05:31:27;7.50;;;4.20;;
21032;SDS011;10675;47.976;7.824;2023-01-23T05:33:53;6.77;;;3.37;;
21032;SDS011;10675;47.976;7.824;2023-01-23T05:36:18;5.13;;;3.63;;
21032;SDS011;10675;47.976;7.824;2023-01-23T05:38:44;7.43;;;4.53;;
21032;SDS011;10675;47.976;7.824;2023-01-23T05:41:09;6.27;;;4.37;;
21032;SDS011;10675;47.976;7.824;2023-01-23T05:43:35;5.20;;;4.13;;
21032;SDS011;10675;47.976;7.824;2023-01-23T05:46:01;7.47;;;4.67;;
21032;SDS011;10675;47.976;7.824;2023-01-23T05:48:27;6.47;;;4.37;;
21032;SDS011;10675;47.976;7.824;2023-01-23T05:50:52;7.73;;;4.20;;
21032;SDS011;10675;47.976;7.824;2023-01-23T05:53:18;6.73;;;4.10;;
21032;SDS011;10675;47.976;7.824;2023-01-23T05:55:43;5.70;;;3.47;;
21032;SDS011;10675;47.976;7.824;2023-01-23T05:58:09;8.50;;;4.73;;
21032;SDS011;10675;47.976;7.824;2023-01-23T06:00:35;7.17;;;3.60;;
21032;SDS011;10675;47.976;7.824;2023-01-23T06:03:00;5.73;;;3.80;;
21032;SDS011;10675;47.976;7.824;2023-01-23T06:05:26;6.20;;;3.77;;
21032;SDS011;10675;47.976;7.824;2023-01-23T06:07:52;5.47;;;3.57;;
21032;SDS011;10675;47.976;7.824;2023-01-23T06:10:17;6.83;;;3.77;;
21032;SDS011;10675;47.976;7.824;2023-01-23T06:12:43;4.57;;;2.87;;
21032;SDS011;10675;47.976;7.824;2023-01-23T06:15:09;5.73;;;3.50;;
21032;SDS011;10675;47.976;7.824;2023-01-23T06:17:35;6.33;;;4.13;;
21032;SDS011;10675;47.976;7.824;2023-01-23T06:20:00;7.20;;;3.50;;
21032;SDS011;10675;47.976;7.824;2023-01-23T06:22:26;5.70;;;3.67;;
21032;SDS011;10675;47.976;7.824;2023-01-23T06:24:52;3.53;;;3.00;;
21032;SDS011;10675;47.976;7.824;2023-01-23T06:27:17;5.63;;;4.00;;
21032;SDS011;10675;47.976;7.824;2023-01-23T06:29:43;5.50;;;3.73;;
21032;SDS011;10675;47.976;7.824;2023-01-23T06:32:08;5.20;;;3.70;;
21032;SDS011;10675;47.976;7.824;2023-01-23T06:34:34;6.07;;;3.87;;
21032;SDS011;10675;47.976;7.824;2023-01-23T06:37:00;5.97;;;4.27;;
21032;SDS011;10675;47.976;7.824;2023-01-23T06:39:26;7.63;;;4.90;;
21032;SDS011;10675;47.976;7.824;2023-01-23T06:41:54;7.15;;;5.38;;
21032;SDS011;10675;47.976;7.824;2023-01-23T06:44:20;5.83;;;4.40;;
21032;SDS011;10675;47.976;7.824;2023-01-23T06:46:45;5.97;;;3.90;;
21032;SDS011;10675;47.976;7.824;2023-01-23T06:49:11;6.77;;;4.20;;
21032;SDS011;10675;47.976;7.824;2023-01-23T06:51:36;3.97;;;3.53;;
21032;SDS011;10675;47.976;7.824;2023-01-23T06:54:02;3.83;;;3.20;;
21032;SDS011;10675;47.976;7.824;2023-01-23T06:56:28;4.10;;;2.83;;
21032;SDS011;10675;47.976;7.824;2023-01-23T06:58:53;2.47;;;1.80;;
21032;SDS011;10675;47.976;7.824;2023-01-23T07:01:19;2.13;;;1.53;;
21032;SDS011;10675;47.976;7.824;2023-01-23T07:03:45;2.88;;;2.20;;
21032;SDS011;10675;47.976;7.824;2023-01-23T07:06:11;2.90;;;1.77;;
21032;SDS011;10675;47.976;7.824;2023-01-23T07:08:38;2.83;;;1.67;;
21032;SDS011;10675;47.976;7.824;2023-01-23T07:11:04;2.47;;;1.83;;
21032;SDS011;10675;47.976;7.824;2023-01-23T07:13:30;2.03;;;1.70;;
21032;SDS011;10675;47.976;7.824;2023-01-23T07:15:56;1.97;;;1.67;;
21032;SDS011;10675;47.976;7.824;2023-01-23T07:18:22;1.43;;;1.33;;
21032;SDS011;10675;47.976;7.824;2023-01-23T07:20:49;1.93;;;1.60;;
21032;SDS011;10675;47.976;7.824;2023-01-23T07:23:14;1.93;;;1.60;;
21032;SDS011;10675;47.976;7.824;2023-01-23T07:25:40;2.43;;;1.63;;
21032;SDS011;10675;47.976;7.824;2023-01-23T07:28:06;2.40;;;1.63;;
21032;SDS011;10675;47.976;7.824;2023-01-23T07:30:32;1.83;;;1.60;;
21032;SDS011;10675;47.976;7.824;2023-01-23T07:32:58;2.30;;;1.70;;
21032;SDS011;10675;47.976;7.824;2023-01-23T07:35:23;3.53;;;1.57;;
21032;SDS011;10675;47.976;7.824;2023-01-23T07:37:49;2.57;;;1.70;;
21032;SDS011;10675;47.976;7.824;2023-01-23T07:40:15;2.80;;;1.53;;
21032;SDS011;10675;47.976;7.824;2023-01-23T07:42:41;1.87;;;1.40;;
21032;SDS011;10675;47.976;7.824;2023-01-23T07:45:07;2.10;;;1.70;;
21032;SDS011;10675;47.976;7.824;2023-01-23T07:47:34;2.77;;;2.00;;
21032;SDS011;10675;47.976;7.824;2023-01-23T07:50:00;2.90;;;1.90;;
21032;SDS011;10675;47.976;7.824;2023-01-23T07:52:26;1.60;;;1.50;;
21032;SDS011;10675;47.976;7.824;2023-01-23T07:54:51;1.93;;;1.50;;
21032;SDS011;10675;47.976;7.824;2023-01-23T07:57:17;1.57;;;1.47;;
21032;SDS011;10675;47.976;7.824;2023-01-23T07:59:42;1.67;;;1.57;;
21032;SDS011;10675;47.976;7.824;2023-01-23T08:02:11;1.73;;;1.50;;
21032;SDS011;10675;47.976;7.824;2023-01-23T08:04:37;1.80;;;1.70;;
21032;SDS011;10675;47.976;7.824;2023-01-23T08:07:03;2.07;;;1.60;;
21032;SDS011;10675;47.976;7.824;2023-01-23T08:09:29;1.30;;;1.10;;
21032;SDS011;10675;47.976;7.824;2023-01-23T08:11:54;2.60;;;1.50;;
21032;SDS011;10675;47.976;7.824;2023-01-23T08:14:20;3.00;;;1.70;;
21032;SDS011;10675;47.976;7.824;2023-01-23T08:16:49;1.47;;;1.17;;
21032;SDS011;10675;47.976;7.824;2023-01-23T08:19:15;1.60;;;1.50;;
21032;SDS011;10675;47.976;7.824;2023-01-23T08:21:41;2.33;;;1.63;;
21032;SDS011;10675;47.976;7.824;2023-01-23T08:24:08;3.53;;;1.30;;
21032;SDS011;10675;47.976;7.824;2023-01-23T08:26:35;2.57;;;2.33;;
21032;SDS011;10675;47.976;7.824;2023-01-23T08:29:01;3.27;;;1.90;;
21032;SDS011;10675;47.976;7.824;2023-01-23T08:31:26;2.93;;;1.60;;
21032;SDS011;10675;47.976;7.824;2023-01-23T08:33:52;1.70;;;1.33;;
21032;SDS011;10675;47.976;7.824;2023-01-23T08:36:18;1.57;;;1.47;;
21032;SDS011;10675;47.976;7.824;2023-01-23T08:38:43;2.30;;;1.50;;
21032;SDS011;10675;47.976;7.824;2023-01-23T08:41:09;2.60;;;1.90;;
21032;SDS011;10675;47.976;7.824;2023-01-23T08:43:38;4.37;;;2.00;;
21032;SDS011;10675;47.976;7.824;2023-01-23T08:46:05;2.70;;;2.00;;
21032;SDS011;10675;47.976;7.824;2023-01-23T08:48:31;2.40;;;1.73;;
21032;SDS011;10675;47.976;7.824;2023-01-23T08:50:59;2.93;;;1.97;;
21032;SDS011;10675;47.976;7.824;2023-01-23T08:53:26;2.63;;;1.80;;
21032;SDS011;10675;47.976;7.824;2023-01-23T08:55:52;3.00;;;1.73;;
21032;SDS011;10675;47.976;7.824;2023-01-23T08:58:18;2.73;;;2.03;;
21032;SDS011;10675;47.976;7.824;2023-01-23T09:00:44;2.10;;;1.57;;
21032;SDS011;10675;47.976;7.824;2023-01-23T09:03:11;2.23;;;2.00;;
21032;SDS011;10675;47.976;7.824;2023-01-23T09:05:36;2.53;;;1.90;;
21032;SDS011;10675;47.976;7.824;2023-01-23T09:08:02;2.23;;;1.97;;
21032;SDS011;10675;47.976;7.824;2023-01-23T09:10:28;1.43;;;1.30;;
21032;SDS011;10675;47.976;7.824;2023-01-23T09:12:53;1.73;;;1.63;;
21032;SDS011;10675;47.976;7.824;2023-01-23T09:15:19;2.20;;;1.83;;
21032;SDS011;10675;47.976;7.824;2023-01-23T09:17:46;3.63;;;1.67;;
21032;SDS011;10675;47.976;7.824;2023-01-23T09:20:12;2.30;;;1.60;;
21032;SDS011;10675;47.976;7.824;2023-01-23T09:22:38;2.50;;;2.03;;
21032;SDS011;10675;47.976;7.824;2023-01-23T09:25:03;1.73;;;1.63;;
21032;SDS011;10675;47.976;7.824;2023-01-23T09:27:29;3.20;;;1.70;;
21032;SDS011;10675;47.976;7.824;2023-01-23T09:29:55;2.07;;;1.50;;
21032;SDS011;10675;47.976;7.824;2023-01-23T09:32:20;1.87;;;1.60;;
21032;SDS011;10675;47.976;7.824;2023-01-23T09:34:46;2.20;;;2.00;;
21032;SDS011;10675;47.976;7.824;2023-01-23T09:37:15;1.90;;;1.67;;
21032;SDS011;10675;47.976;7.824;2023-01-23T09:39:41;2.60;;;2.07;;
21032;SDS011;10675;47.976;7.824;2023-01-23T09:42:18;2.63;;;1.80;;
21032;SDS011;10675;47.976;7.824;2023-01-23T09:44:47;3.57;;;2.23;;
21032;SDS011;10675;47.976;7.824;2023-01-23T09:47:35;3.87;;;3.10;;
21032;SDS011;10675;47.976;7.824;2023-01-23T09:50:17;2.67;;;2.20;;
21032;SDS011;10675;47.976;7.824;2023-01-23T09:52:48;3.97;;;2.67;;
21032;SDS011;10675;47.976;7.824;2023-01-23T09:55:23;3.37;;;2.17;;
21032;SDS011;10675;47.976;7.824;2023-01-23T09:57:55;2.57;;;1.70;;
21032;SDS011;10675;47.976;7.824;2023-01-23T10:00:28;3.53;;;2.17;;
21032;SDS011;10675;47.976;7.824;2023-01-23T10:02:56;3.35;;;2.20;;
21032;SDS011;10675;47.976;7.824;2023-01-23T10:05:30;2.87;;;1.80;;
21032;SDS011;10675;47.976;7.824;2023-01-23T10:08:13;2.87;;;2.27;;
21032;SDS011;10675;47.976;7.824;2023-01-23T10:19:08;4.13;;;2.20;;
21032;SDS011;10675;47.976;7.824;2023-01-23T10:21:57;3.10;;;1.97;;
21032;SDS011;10675;47.976;7.824;2023-01-23T10:24:47;3.57;;;2.30;;
21032;SDS011;10675;47.976;7.824;2023-01-23T10:27:18;4.43;;;2.70;;
21032;SDS011;10675;47.976;7.824;2023-01-23T10:29:55;4.40;;;2.30;;
21032;SDS011;10675;47.976;7.824;2023-01-23T10:32:25;3.53;;;2.47;;
21032;SDS011;10675;47.976;7.824;2023-01-23T10:34:54;3.93;;;2.93;;
21032;SDS011;10675;47.976;7.824;2023-01-23T10:40:01;3.17;;;2.40;;
21032;SDS011;10675;47.976;7.824;2023-01-23T10:42:31;4.80;;;2.70;;
21032;SDS011;10675;47.976;7.824;2023-01-23T10:44:57;3.00;;;2.10;;
21032;SDS011;10675;47.976;7.824;2023-01-23T10:47:30;3.47;;;2.57;;
21032;SDS011;10675;47.976;7.824;2023-01-23T10:50:01;4.07;;;2.17;;
21032;SDS011;10675;47.976;7.824;2023-01-23T10:54:58;3.57;;;2.70;;
21032;SDS011;10675;47.976;7.824;2023-01-23T10:57:25;4.53;;;2.30;;
21032;SDS011;10675;47.976;7.824;2023-01-23T11:00:00;2.93;;;2.23;;
21032;SDS011;10675;47.976;7.824;2023-01-23T11:02:33;3.65;;;3.03;;
21032;SDS011;10675;47.976;7.824;2023-01-23T11:05:01;5.83;;;3.17;;
21032;SDS011;10675;47.976;7.824;2023-01-23T11:07:49;3.13;;;2.70;;
21032;SDS011;10675;47.976;7.824;2023-01-23T11:10:19;3.80;;;2.67;;
21032;SDS011;10675;47.976;7.824;2023-01-23T11:12:47;2.30;;;1.93;;
21032;SDS011;10675;47.976;7.824;2023-01-23T11:15:20;3.97;;;2.63;;
21032;SDS011;10675;47.976;7.824;2023-01-23T11:17:48;2.77;;;2.30;;
21032;SDS011;10675;47.976;7.824;2023-01-23T11:20:31;3.13;;;2.30;;
21032;SDS011;10675;47.976;7.824;2023-01-23T11:23:01;3.30;;;2.17;;
21032;SDS011;10675;47.976;7.824;2023-01-23T11:25:36;3.97;;;2.43;;
21032;SDS011;10675;47.976;7.824;2023-01-23T11:28:16;4.13;;;2.40;;
21032;SDS011;10675;47.976;7.824;2023-01-23T11:33:39;3.53;;;2.40;;
21032;SDS011;10675;47.976;7.824;2023-01-23T11:36:27;4.97;;;2.77;;
21032;SDS011;10675;47.976;7.824;2023-01-23T11:41:47;4.00;;;2.63;;
21032;SDS011;10675;47.976;7.824;2023-01-23T11:44:15;4.30;;;2.67;;
21032;SDS011;10675;47.976;7.824;2023-01-23T11:49:42;3.53;;;2.53;;
21032;SDS011;10675;47.976;7.824;2023-01-23T12:03:45;5.23;;;3.10;;
21032;SDS011;10675;47.976;7.824;2023-01-23T12:06:28;3.83;;;2.80;;
21032;SDS011;10675;47.976;7.824;2023-01-23T12:09:06;4.43;;;2.50;;
21032;SDS011;10675;47.976;7.824;2023-01-23T12:11:47;3.33;;;2.27;;
21032;SDS011;10675;47.976;7.824;2023-01-23T12:14:40;6.90;;;3.00;;
21032;SDS011;10675;47.976;7.824;2023-01-23T12:30:42;7.00;;;3.17;;
21032;SDS011;10675;47.976;7.824;2023-01-23T12:33:28;4.03;;;2.80;;
21032;SDS011;10675;47.976;7.824;2023-01-23T12:39:02;5.27;;;3.13;;
21032;SDS011;10675;47.976;7.824;2023-01-23T12:42:05;3.67;;;2.60;;
21032;SDS011;10675;47.976;7.824;2023-01-23T12:44:41;5.67;;;2.90;;
21032;SDS011;10675;47.976;7.824;2023-01-23T12:47:21;4.97;;;2.83;;
21032;SDS011;10675;47.976;7.824;2023-01-23T12:50:03;3.80;;;2.80;;
21032;SDS011;10675;47.976;7.824;2023-01-23T12:52:39;5.20;;;3.47;;
21032;SDS011;10675;47.976;7.824;2023-01-23T12:57:45;5.23;;;2.50;;
21032;SDS011;10675;47.976;7.824;2023-01-23T13:02:55;2.77;;;2.10;;
21032;SDS011;10675;47.976;7.824;2023-01-23T13:08:42;4.27;;;2.50;;
21032;SDS011;10675;47.976;7.824;2023-01-23T13:11:25;5.03;;;2.63;;
21032;SDS011;10675;47.976;7.824;2023-01-23T13:20:55;5.60;;;2.83;;
21032;SDS011;10675;47.976;7.824;2023-01-23T13:23:41;4.30;;;2.60;;
21032;SDS011;10675;47.976;7.824;2023-01-23T13:28:47;4.53;;;2.73;;
21032;SDS011;10675;47.976;7.824;2023-01-23T13:36:48;4.27;;;3.20;;
21032;SDS011;10675;47.976;7.824;2023-01-23T13:39:22;3.93;;;2.80;;
21032;SDS011;10675;47.976;7.824;2023-01-23T13:47:38;4.50;;;2.77;;
21032;SDS011;10675;47.976;7.824;2023-01-23T13:50:35;5.90;;;3.53;;
21032;SDS011;10675;47.976;7.824;2023-01-23T13:53:16;4.27;;;3.07;;
21032;SDS011;10675;47.976;7.824;2023-01-23T13:56:03;6.10;;;3.20;;
21032;SDS011;10675;47.976;7.824;2023-01-23T13:58:48;4.73;;;3.20;;
21032;SDS011;10675;47.976;7.824;2023-01-23T14:01:19;4.20;;;3.13;;
21032;SDS011;10675;47.976;7.824;2023-01-23T14:04:18;4.50;;;3.03;;
21032;SDS011;10675;47.976;7.824;2023-01-23T14:07:28;3.70;;;2.70;;
21032;SDS011;10675;47.976;7.824;2023-01-23T14:10:12;7.63;;;2.90;;
21032;SDS011;10675;47.976;7.824;2023-01-23T14:16:14;4.43;;;3.03;;
21032;SDS011;10675;47.976;7.824;2023-01-23T14:18:52;7.22;;;3.90;;
21032;SDS011;10675;47.976;7.824;2023-01-23T14:23:53;8.17;;;3.33;;
21032;SDS011;10675;47.976;7.824;2023-01-23T14:26:25;5.73;;;3.60;;
21032;SDS011;10675;47.976;7.824;2023-01-23T14:28:57;5.53;;;3.70;;
21032;SDS011;10675;47.976;7.824;2023-01-23T14:31:28;7.33;;;4.03;;
21032;SDS011;10675;47.976;7.824;2023-01-23T14:33:58;6.10;;;3.60;;
21032;SDS011;10675;47.976;7.824;2023-01-23T14:36:40;5.13;;;3.30;;
21032;SDS011;10675;47.976;7.824;2023-01-23T14:42:12;7.17;;;3.87;;
21032;SDS011;10675;47.976;7.824;2023-01-23T14:44:54;6.27;;;3.30;;
21032;SDS011;10675;47.976;7.824;2023-01-23T14:50:08;6.73;;;3.90;;
21032;SDS011;10675;47.976;7.824;2023-01-23T14:52:35;4.77;;;3.60;;
21032;SDS011;10675;47.976;7.824;2023-01-23T14:55:01;5.40;;;3.60;;
21032;SDS011;10675;47.976;7.824;2023-01-23T14:57:27;6.73;;;3.57;;
21032;SDS011;10675;47.976;7.824;2023-01-23T14:59:54;5.50;;;3.30;;
21032;SDS011;10675;47.976;7.824;2023-01-23T15:07:44;5.83;;;3.77;;
21032;SDS011;10675;47.976;7.824;2023-01-23T15:10:17;6.93;;;3.97;;
21032;SDS011;10675;47.976;7.824;2023-01-23T15:13:02;8.57;;;4.40;;
21032;SDS011;10675;47.976;7.824;2023-01-23T15:15:29;6.10;;;3.53;;
21032;SDS011;10675;47.976;7.824;2023-01-23T15:17:56;7.67;;;3.90;;
21032;SDS011;10675;47.976;7.824;2023-01-23T15:22:53;5.23;;;3.40;;
21032;SDS011;10675;47.976;7.824;2023-01-23T15:25:53;7.07;;;3.20;;
21032;SDS011;10675;47.976;7.824;2023-01-23T15:28:30;7.20;;;4.07;;
21032;SDS011;10675;47.976;7.824;2023-01-23T15:31:01;7.30;;;4.13;;
21032;SDS011;10675;47.976;7.824;2023-01-23T15:33:28;7.30;;;3.97;;
21032;SDS011;10675;47.976;7.824;2023-01-23T15:36:10;6.80;;;3.67;;
21032;SDS011;10675;47.976;7.824;2023-01-23T15:38:52;11.23;;;4.40;;
21032;SDS011;10675;47.976;7.824;2023-01-23T15:41:19;7.20;;;4.43;;
21032;SDS011;10675;47.976;7.824;2023-01-23T15:43:45;9.13;;;4.27;;
21032;SDS011;10675;47.976;7.824;2023-01-23T15:46:11;7.70;;;4.37;;
21032;SDS011;10675;47.976;7.824;2023-01-23T15:48:36;10.10;;;5.00;;
21032;SDS011;10675;47.976;7.824;2023-01-23T15:51:02;8.17;;;4.70;;
21032;SDS011;10675;47.976;7.824;2023-01-23T15:53:28;8.13;;;4.23;;
21032;SDS011;10675;47.976;7.824;2023-01-23T15:55:54;12.40;;;4.83;;
21032;SDS011;10675;47.976;7.824;2023-01-23T15:58:19;7.67;;;4.30;;
21032;SDS011;10675;47.976;7.824;2023-01-23T16:00:45;8.63;;;4.37;;
21032;SDS011;10675;47.976;7.824;2023-01-23T16:03:10;10.83;;;4.30;;
21032;SDS011;10675;47.976;7.824;2023-01-23T16:05:39;6.43;;;4.30;;
21032;SDS011;10675;47.976;7.824;2023-01-23T16:08:08;13.70;;;5.73;;
21032;SDS011;10675;47.976;7.824;2023-01-23T16:10:42;10.07;;;5.07;;
21032;SDS011;10675;47.976;7.824;2023-01-23T16:13:08;12.33;;;5.10;;
21032;SDS011;10675;47.976;7.824;2023-01-23T16:15:36;9.03;;;4.30;;
21032;SDS011;10675;47.976;7.824;2023-01-23T16:18:03;8.87;;;5.07;;
21032;SDS011;10675;47.976;7.824;2023-01-23T16:20:33;7.53;;;4.70;;
21032;SDS011;10675;47.976;7.824;2023-01-23T16:23:03;8.50;;;5.17;;
21032;SDS011;10675;47.976;7.824;2023-01-23T16:25:32;9.33;;;4.90;;
21032;SDS011;10675;47.976;7.824;2023-01-23T16:27:59;11.80;;;5.60;;
21032;SDS011;10675;47.976;7.824;2023-01-23T16:30:25;6.87;;;4.53;;
21032;SDS011;10675;47.976;7.824;2023-01-23T16:32:51;8.32;;;5.47;;
21032;SDS011;10675;47.976;7.824;2023-01-23T16:35:17;11.87;;;5.53;;
21032;SDS011;10675;47.976;7.824;2023-01-23T16:37:44;11.00;;;5.20;;
21032;SDS011;10675;47.976;7.824;2023-01-23T16:40:16;7.03;;;4.20;;
21032;SDS011;10675;47.976;7.824;2023-01-23T16:42:46;7.00;;;4.10;;
21032;SDS011;10675;47.976;7.824;2023-01-23T16:45:13;6.50;;;3.77;;